Terminal Aerodrome Forecast
Issued by NWS

Home | Current Version | Previous Version | Text Only | Print | Product List | Glossary On
Versions: 1 2 3 4 5 6 7 8 9 10 11 12 13 14 15 16 17
261
FTUS43 KAPX 232208 AAC
TAFAPN
TAF AMD
KAPN 232208Z 2322/2418 05010KT P6SM SCT009 OVC019
      TEMPO 2322/2401 BKN009 OVC015
     FM240100 03010KT P6SM -SHRA OVC015
     FM240600 02012KT P6SM OVC015
     FM241700 02009KT P6SM BKN035=

USA.gov is the U.S. government's official web portal to all federal, state and local government web resources and services.